METAR Data
IDs: Format: Raw Decoded Include TAF

Data at: 0126 UTC 24 Sep 2018

KGCM 240115Z AUTO 03004KT 10SM OVC029 21/17 A2995 RMK AO2 TSNO
KGCM 240055Z AUTO 03004KT 10SM OVC029 21/17 A2995 RMK AO2 TSNO
KGCM 240035Z AUTO 00000KT 10SM OVC027 21/17 A2995 RMK AO2 TSNO
KGCM 240015Z AUTO 02003KT 10SM OVC027 22/17 A2995 RMK AO2 TSNO
KGCM 232355Z AUTO 00000KT 10SM OVC027 22/17 A2995 RMK AO2 TSNO
KGCM 232335Z AUTO 04003KT 10SM OVC027 22/17 A2995 RMK AO2 TSNO
KGCM 232315Z AUTO 00000KT 10SM OVC027 22/17 A2995 RMK AO2 TSNO
KGCM 232255Z AUTO 13003KT 10SM OVC027 23/17 A2995 RMK AO2 TSNO
KGCM 232235Z AUTO 07003KT 10SM OVC027 23/17 A2995 RMK AO2 TSNO
KGCM 232215Z AUTO 09003KT 10SM OVC027 23/17 A2995 RMK AO2 TSNO
KGCM 232155Z AUTO 09004KT 10SM OVC027 23/17 A2995 RMK AO2 TSNO
KGCM 232135Z AUTO 09006KT 10SM OVC025 23/17 A2996 RMK AO2 TSNO
KGCM 232115Z AUTO 09006KT 10SM OVC025 23/17 A2996 RMK AO2 TSNO
KGCM 232055Z AUTO 07005KT 10SM OVC025 23/17 A2997 RMK AO2 TSNO
KGCM 232035Z AUTO 09005KT 10SM OVC025 23/17 A2998 RMK AO2 TSNO
KGCM 232015Z AUTO 09007KT 10SM OVC025 23/17 A2998 RMK AO2 TSNO
KGCM 231955Z AUTO 09007KT 10SM OVC025 23/17 A2999 RMK AO2 TSNO
KGCM 231935Z AUTO 10004KT 10SM OVC025 23/17 A3000 RMK AO2 TSNO
KGCM 231915Z AUTO 11004KT 10SM OVC023 22/17 A3001 RMK AO2 TSNO
KGCM 231855Z AUTO 10006KT 10SM OVC023 22/17 A3002 RMK AO2 TSNO
KGCM 231835Z AUTO 07006KT 10SM OVC023 22/17 A3003 RMK AO2 TSNO
KGCM 231815Z AUTO 06007KT 10SM OVC021 22/16 A3004 RMK AO2 TSNO
KGCM 231755Z AUTO 08006KT 10SM OVC021 22/16 A3004 RMK AO2 TSNO
KGCM 231735Z AUTO 07005KT 10SM OVC021 21/16 A3005 RMK AO2 TSNO
KGCM 231715Z AUTO 02004KT 10SM OVC019 21/16 A3005 RMK AO2 TSNO
KGCM 231655Z AUTO 05006KT 10SM OVC019 21/16 A3006 RMK AO2 TSNO
KGCM 231635Z AUTO 05006KT 10SM OVC017 21/16 A3006 RMK AO2 TSNO
KGCM 231615Z AUTO 02007KT 10SM OVC017 21/16 A3006 RMK AO2 TSNO
KGCM 231555Z AUTO 05007KT 10SM OVC015 20/16 A3006 RMK AO2 TSNO
KGCM 231535Z AUTO 03007KT 10SM OVC015 20/16 A3007 RMK AO2 TSNO
KGCM 231515Z AUTO 06007KT 10SM OVC015 19/16 A3007 RMK AO2 TSNO
KGCM 231455Z AUTO 06007KT 10SM BKN009 OVC019 18/16 A3006 RMK AO2 TSNO
KGCM 231435Z AUTO 07007KT 10SM BKN009 OVC017 18/16 A3006 RMK AO2 TSNO
KGCM 231415Z AUTO 06006KT 10SM BKN009 OVC019 18/16 A3006 RMK AO2 TSNO
KGCM 231355Z AUTO 06006KT 10SM OVC007 17/16 A3006 RMK AO2 TSNO
KGCM 231335Z AUTO 07007KT 10SM OVC005 17/16 A3006 RMK AO2 TSNO
KGCM 231315Z AUTO 06006KT 4SM BR BKN005 BKN015 OVC021 17/16 A3006 RMK AO2 TSNO
KGCM 231255Z AUTO 05005KT 5SM BR SCT005 SCT009 OVC019 17/16 A3005 RMK AO2 TSNO
KGCM 231235Z AUTO 06005KT 7SM OVC005 17/16 A3005 RMK AO2 TSNO
KGCM 231215Z AUTO 06005KT 4SM BR OVC005 17/16 A3005 RMK AO2 TSNO
KGCM 231155Z AUTO 06003KT 7SM OVC005 17/16 A3005 RMK AO2 TSNO
KGCM 231135Z AUTO 05003KT 10SM OVC003 17/16 A3005 RMK AO2 TSNO
KGCM 231115Z AUTO 04003KT 10SM OVC003 17/16 A3004 RMK AO2 TSNO
KGCM 231055Z AUTO 04003KT 2 1/2SM BR OVC003 17/16 A3004 RMK AO2 TSNO
KGCM 231035Z AUTO 03003KT 2 1/2SM BR OVC005 17/16 A3004 RMK AO2 TSNO
KGCM 231015Z AUTO 00000KT 4SM BR SCT005 BKN012 OVC019 17/16 A3004 RMK AO2 TSNO
KGCM 230955Z AUTO 04003KT 5SM BR SCT006 BKN016 OVC021 17/16 A3004 RMK AO2 TSNO
KGCM 230935Z AUTO 04003KT 3SM BR SCT005 OVC014 17/16 A3004 RMK AO2 TSNO
KGCM 230915Z AUTO 05003KT 4SM BR SCT007 OVC014 17/16 A3004 RMK AO2 TSNO
KGCM 230850Z AUTO 04004KT 10SM OVC014 17/15 A3004 RMK AO2 TSNO
KGCM 230835Z AUTO 05005KT 10SM OVC014 17/15 A3005 RMK AO2 TSNO
KGCM 230815Z AUTO 06004KT 10SM OVC014 17/15 A3005 RMK AO2 TSNO
KGCM 230755Z AUTO 07004KT 10SM OVC019 17/15 A3005 RMK AO2 TSNO
KGCM 230735Z AUTO 06005KT 10SM OVC023 18/15 A3005 RMK AO2 TSNO
KGCM 230715Z AUTO 07005KT 10SM OVC021 18/15 A3005 RMK AO2 TSNO
KGCM 230655Z AUTO 07004KT 10SM OVC021 18/15 A3006 RMK AO2 TSNO
KGCM 230635Z AUTO 08004KT 10SM OVC021 18/15 A3006 RMK AO2 TSNO
KGCM 230615Z AUTO 07004KT 10SM OVC019 18/15 A3006 RMK AO2 TSNO
KGCM 230555Z AUTO 07005KT 10SM OVC017 18/15 A3006 RMK AO2 TSNO
KGCM 230535Z AUTO 08003KT 10SM OVC017 18/15 A3007 RMK AO2 TSNO
KGCM 230515Z AUTO 09006KT 10SM OVC019 18/15 A3007 RMK AO2 TSNO
KGCM 230455Z AUTO 08006KT 10SM OVC019 18/15 A3008 RMK AO2 TSNO
KGCM 230435Z AUTO 08006KT 10SM OVC019 18/15 A3008 RMK AO2 TSNO
KGCM 230415Z AUTO 10008KT 10SM OVC019 18/15 A3008 RMK AO2 TSNO
KGCM 230355Z AUTO 09007KT 10SM OVC019 18/15 A3008 RMK AO2 TSNO
KGCM 230335Z AUTO 08006KT 10SM OVC019 18/15 A3008 RMK AO2 TSNO
KGCM 230315Z AUTO 08008KT 10SM OVC021 18/15 A3009 RMK AO2 TSNO
KGCM 230255Z AUTO 08008KT 10SM OVC021 18/15 A3009 RMK AO2 TSNO
KGCM 230235Z AUTO 08007KT 10SM BKN021 18/15 A3009 RMK AO2 TSNO
KGCM 230215Z AUTO 09008KT 10SM BKN021 18/15 A3009 RMK AO2 TSNO
KGCM 230155Z AUTO 08008KT 10SM OVC021 18/15 A3008 RMK AO2 TSNO
KGCM 230135Z AUTO 09007KT 10SM OVC023 19/15 A3009 RMK AO2 TSNO
KGCM 230115Z AUTO 08006KT 10SM OVC025 19/15 A3008 RMK AO2 TSNO
KGCM 230055Z AUTO 07008KT 10SM BKN027 OVC033 19/15 A3008 RMK AO2 TSNO
KGCM 230035Z AUTO 07006KT 10SM OVC031 20/15 A3007 RMK AO2 TSNO
KGCM 230015Z AUTO 08007KT 10SM OVC029 20/15 A3007 RMK AO2 TSNO
KGCM 222355Z AUTO 09009KT 10SM OVC027 21/15 A3007 RMK AO2 TSNO
KGCM 222335Z AUTO 06009KT 10SM OVC027 21/15 A3006 RMK AO2 TSNO
KGCM 222315Z AUTO 08010KT 10SM OVC027 21/15 A3007 RMK AO2 TSNO
KGCM 222255Z AUTO 05011G14KT 10SM OVC029 21/15 A3007 RMK AO2 TSNO
KGCM 222235Z AUTO 06010G14KT 10SM OVC029 22/15 A3007 RMK AO2 TSNO
KGCM 222215Z AUTO 06010KT 10SM OVC029 21/15 A3007 RMK AO2 TSNO
KGCM 222155Z AUTO 06011KT 10SM OVC029 22/15 A3007 RMK AO2 TSNO
KGCM 222135Z AUTO 06009G18KT 10SM OVC029 22/15 A3007 RMK AO2 TSNO
KGCM 222115Z AUTO 06011KT 10SM OVC029 22/15 A3008 RMK AO2 TSNO
KGCM 222055Z AUTO 06009G15KT 025V085 10SM BKN029 22/15 A3008 RMK AO2 TSNO
KGCM 222035Z AUTO 05007G15KT 10SM OVC029 22/15 A3008 RMK AO2 TSNO
KGCM 222015Z AUTO 06010KT 10SM OVC027 23/15 A3008 RMK AO2 TSNO
KGCM 221955Z AUTO 07010KT 10SM OVC027 22/15 A3010 RMK AO2 TSNO
KGCM 221930Z AUTO 04008KT 005V065 10SM BKN027 22/15 A3011 RMK AO2 TSNO
KGCM 221915Z AUTO 04010G15KT 10SM OVC027 23/15 A3011 RMK AO2 TSNO
KGCM 221855Z AUTO 04010G16KT 10SM OVC027 22/15 A3012 RMK AO2 TSNO
KGCM 221835Z AUTO 07011G15KT 10SM OVC027 22/15 A3013 RMK AO2 TSNO
KGCM 221815Z AUTO 06010G14KT 10SM OVC027 22/15 A3013 RMK AO2 TSNO
KGCM 221755Z AUTO 04008KT 10SM BKN027 22/15 A3014 RMK AO2 TSNO
KGCM 221735Z AUTO 05009G17KT 10SM BKN025 22/15 A3015 RMK AO2 TSNO
KGCM 221715Z AUTO 05010G14KT 10SM OVC025 22/15 A3015 RMK AO2 TSNO
KGCM 221655Z AUTO 06008KT 10SM BKN025 22/15 A3017 RMK AO2 TSNO
KGCM 221635Z AUTO 08012G16KT 10SM SCT025 21/14 A3017 RMK AO2 TSNO
KGCM 221615Z AUTO 08011KT 10SM SCT023 21/14 A3017 RMK AO2 TSNO
KGCM 221555Z AUTO 07012G16KT 10SM SCT023 20/14 A3017 RMK AO2 TSNO
KGCM 221535Z AUTO 07015KT 10SM CLR 20/14 A3018 RMK AO2 TSNO
KGCM 221515Z AUTO 07012G16KT 10SM SCT017 19/14 A3017 RMK AO2 TSNO
KGCM 221455Z AUTO 06011G17KT 10SM SCT015 SCT080 18/14 A3017 RMK AO2 TSNO
KGCM 221435Z AUTO 07012G17KT 10SM SCT013 BKN080 17/14 A3017 RMK AO2 TSNO
KGCM 221415Z AUTO 03007G14KT 10SM SCT011 OVC080 17/14 A3017 RMK AO2 TSNO
KGCM 221355Z AUTO 05008KT 10SM SCT011 SCT060 OVC080 17/14 A3017 RMK AO2 TSNO
KGCM 221335Z AUTO 03007KT 10SM SCT011 SCT060 OVC080 16/14 A3017 RMK AO2 TSNO